Chiaramonte, Jasmine
United StatesWomanBorn 19762015 – 2023Runner id 680961
Events
38
29 race dates
Best pace
10.943
km/h · 2018
Best finish
2nd
of 80 · 2016
Distance raced
4,157
km · splits not double-counted
Pace over time
36 of 38 results · km/h
Pace over time: 29 races and 7 splits from 2015 to 2023, ranging from 5.11 to 11.28 kilometres per hour, where higher is faster. A second, age-graded series is drawn above it; the gap between the two is the age credit.
- Actual pace
- Age-graded pace
- Split of a race already plotted
2 results are not on this chart. They are counted in every statistic above and listed in full below — backyard ultras carry a lap count instead of a pace, which is the number that means something in that format.
Results
| Date | Event | Distance | Result | Pace km/h | Placing |
|---|---|---|---|---|---|
| 2015-05-17 | Dirty German Endurance Fest 50 kmUnited States | 50km | 5:12:58 h | 9.586 | 22/128 |
| 2015-07-18 | Lone Ranger 24 hr Urban UltraUnited States | 24h | 122.535 km | 5.106 | 28/128 |
| 2015-10-11 | 12h | 84.329 km | 7.027 | 5/42 | |
| 2016-07-23 | 24h | 161.739 km | 6.739 | 2/80 | |
| 2016-10-08 | 100mi | 25:11:59 h | 6.386 | 23/98 | |
| 2017-04-01 | 68mi | 16:55:56 h | 6.463 | 29/184 | |
| 2017-09-16 | North Coast 24 Hour Endurance RunUnited States | 24h | 191.828 km | 7.993 | 5/129 |
| 2018-02-17 | 50km | 4:36:24 h | 10.854 | 2/42 | |
| 2018-03-03 | 40mi | 6:30:57 h | 9.880 | 7/72 | |
| 2018-03-31 | 68mi | 15:13:22 h | 7.189 | 18/169 | |
| 2018-05-12 | 50km | 4:34:09 h | 10.943 | 12/190 | |
| 2018-06-23 | Western States 100 Mile Endurance RunUnited States | 100mi | 21:22:08 h | 7.531 | 47/299 |
| 2018-09-22 | 24h | 188.989 km | 7.875 | 9/124 | |
| 2018-10-20 | 68h | 181.062 km | 27laps | 22/61 | |
| 2018-12-15 | 50km | 5:26:08 h | 9.199 | 10/119 | |
| 2019-03-02 | 40mi | 7:03:23 h | 9.123 | 6/54 | |
| 2019-04-06 | 50mi | 8:12:08 h | 9.810 | 17/363 | |
| 2019-05-11 | 24h | 190.805 km | 7.950 | 6/48 | |
| 2019-08-23 | 48h | 298.001 km | 6.208 | 4/29 | |
| 2019-08-23 | Six Days in the Dome - The Redux 48h - 100mi SplitUnited StatesSplit of a longer race in this career; not counted again in the distance total*Meadowbrook, PA | 100mi | 21:12:45 h | 7.587 | 5/23 |
| 2019-08-23 | Six Days in the Dome - The Redux 48h - 100km SplitUnited StatesSplit of a longer race in this career; not counted again in the distance total*Meadowbrook, PA | 100km | 12:00:05 h | 8.332 | 6/27 |
| 2019-08-23 | Six Days in the Dome - The Redux 48h - 50mi SplitUnited StatesSplit of a longer race in this career; not counted again in the distance total*Meadowbrook, PA | 50mi | 8:59:08 h | 8.955 | 4/29 |
| 2019-08-23 | Six Days in the Dome - The Redux 48h - 50km SplitUnited StatesSplit of a longer race in this career; not counted again in the distance total*Meadowbrook, PA | 50km | 5:25:28 h | 9.218 | 5/29 |
| 2019-09-27 | 100mi | 18:39:25 h | 8.626 | 5/162 | |
| 2019-10-19 | 60h | 134.120 km | 20laps | 48/70 | |
| 2021-05-08 | 50mi | 8:52:25 h | 9.068 | 15/129 | |
| 2021-06-05 | 100mi | 21:31:25 h | 7.477 | 11/49 | |
| 2021-07-24 | 100mi | 20:31:18 h | 7.842 | 12/170 | |
| 2022-03-05 | 40mi | 7:22:35 h | 8.727 | 16/86 | |
| 2022-04-30 | 100mi | 17:38:18 h | 9.124 | 4/92 | |
| 2022-06-18 | 24h | 168.069 km | 7.003 | 11/29 | |
| 2022-07-30 | 100mi | 21:16:00 h | 7.567 | 12/145 | |
| 2023-05-13 | 24h | 128.800 km | 5.367 | 11/33 | |
| 2023-05-13 | Dawn to Dusk to Dawn 24 Hour - 100km SplitUnited StatesIAU BronzeSplit of a longer race in this career; not counted again in the distance total*Jenkintown, PA | 100km | 12:18:12 h | 8.128 | 9/18 |
| 2023-05-13 | Dawn to Dusk to Dawn 24 Hour - 50mi SplitUnited StatesIAU BronzeSplit of a longer race in this career; not counted again in the distance total*Jenkintown, PA | 50mi | 9:26:09 h | 8.528 | 10/22 |
| 2023-05-13 | Dawn to Dusk to Dawn 24 Hour - 50km SplitUnited StatesIAU BronzeSplit of a longer race in this career; not counted again in the distance total*Jenkintown, PA | 50km | 5:21:42 h | 9.325 | 8/32 |
| 2023-07-29 | 100mi | 21:58:33 h | 7.323 | 16/143 | |
| 2023-09-30 | 246km | 34:26:24 h | 7.143 | 173/255 |